KMFR/MFR METAR and TAF weather

Enter ICAO airport designator
Station Type Date Time Source
KMFR METAR 2021/05/14 22:53 UTC NOAA

KMFR 142253Z 32012KT 10SM CLR 27/07 A2988 RMK AO2 SLP109 T02720072


Station Type Date Time Source
KMFR Decoded METAR 2021/05/14 22:53 UTC NOAA

ROGUE VALLEY INTERNATIONAL AIRPORT, OR, United States (KMFR) 42-23N 122-53W 396M
May 14, 2021 - 06:53 PM EDT / 2021.05.14 2253 UTC
Wind: from the NW (320 degrees) at 14 MPH (12 KT):0
Visibility: 10 mile(s):0
Sky conditions: clear
Temperature: 81.0 F (27.2 C)
Dew Point: 45.0 F (7.2 C)
Relative Humidity: 28%
Pressure (altimeter): 29.88 in. Hg (1011 hPa)
ob: KMFR 142253Z 32012KT 10SM CLR 27/07 A2988 RMK AO2 SLP109 T02720072
cycle: 23

Station Type Date Time Source
KMFR TAF 2021/05/14 18:39 UTC NOAA

TAF KMFR 141736Z 1418/1518 VRB03KT P6SM SKC
FM142300 30009G16KT P6SM SCT070 BKN150
FM150400 VRB03KT P6SM SCT150

Example: see airport list